createdAt,value
2023-06-02T00:01:44.302Z,19.56
2023-06-02T00:04:46.812Z,19.45
2023-06-02T00:07:49.570Z,19.42
2023-06-02T00:10:50.920Z,19.33
2023-06-02T00:13:52.390Z,19.23
2023-06-02T00:16:56.346Z,19.20
2023-06-02T00:19:57.976Z,19.12
2023-06-02T00:22:59.420Z,19.08
2023-06-02T00:26:01.507Z,19.00
2023-06-02T00:29:03.601Z,18.82
2023-06-02T00:32:05.464Z,18.79
2023-06-02T00:35:06.985Z,18.89
2023-06-02T00:38:08.343Z,18.89
2023-06-02T00:41:09.853Z,18.83
2023-06-02T00:44:11.166Z,18.82
2023-06-02T00:47:12.528Z,18.76
2023-06-02T00:50:13.936Z,18.69
2023-06-02T00:53:16.073Z,18.75
2023-06-02T00:56:18.353Z,18.70
2023-06-02T00:59:20.551Z,18.62
2023-06-02T01:02:22.227Z,18.59
2023-06-02T01:05:23.572Z,18.55
2023-06-02T01:08:25.831Z,18.52
2023-06-02T01:11:27.288Z,18.43
2023-06-02T01:14:28.909Z,18.12
2023-06-02T01:17:36.586Z,18.22
2023-06-02T01:20:52.935Z,18.36
2023-06-02T01:23:54.935Z,18.36
2023-06-02T01:26:56.561Z,18.37
2023-06-02T01:29:57.967Z,18.32
2023-06-02T01:33:04.808Z,18.21
2023-06-02T01:36:07.828Z,18.04
2023-06-02T01:39:10.467Z,18.08
2023-06-02T01:42:11.883Z,17.94
2023-06-02T01:45:14.236Z,17.87
2023-06-02T01:48:15.644Z,17.77
2023-06-02T01:51:17.008Z,17.73
2023-06-02T01:54:18.381Z,17.66
2023-06-02T01:57:19.709Z,17.64
2023-06-02T02:00:21.156Z,16.85
2023-06-02T02:03:23.717Z,17.29
2023-06-02T02:06:31.470Z,17.28
2023-06-02T02:09:32.857Z,17.35
2023-06-02T02:12:34.778Z,17.30
2023-06-02T02:15:36.168Z,17.29
2023-06-02T02:18:37.477Z,17.25
2023-06-02T02:21:39.093Z,17.19
2023-06-02T02:24:40.667Z,17.03
2023-06-02T02:27:42.075Z,16.77
2023-06-02T02:30:43.452Z,16.64
2023-06-02T02:33:44.853Z,16.62
2023-06-02T02:36:46.249Z,16.71
2023-06-02T02:39:47.673Z,16.66
2023-06-02T02:42:48.994Z,16.58
2023-06-02T02:45:50.356Z,16.38
2023-06-02T02:48:51.869Z,16.12
2023-06-02T02:51:53.232Z,16.22
2023-06-02T02:54:54.610Z,16.35
2023-06-02T02:57:55.932Z,16.30
2023-06-02T03:00:57.309Z,16.36
2023-06-02T03:03:59.305Z,16.15
2023-06-02T03:07:02.239Z,16.13
2023-06-02T03:10:03.812Z,16.20
2023-06-02T03:13:05.162Z,16.26
2023-06-02T03:16:06.759Z,16.21
2023-06-02T03:19:17.212Z,15.93
2023-06-02T03:22:18.581Z,15.93
2023-06-02T03:25:22.747Z,15.89
2023-06-02T03:28:24.070Z,15.87
2023-06-02T03:31:26.991Z,15.86
2023-06-02T03:34:30.947Z,15.77
2023-06-02T03:37:32.322Z,15.74
2023-06-02T03:40:34.605Z,15.83
2023-06-02T03:43:36.015Z,15.85
2023-06-02T03:46:37.392Z,15.75
2023-06-02T03:49:38.801Z,15.62
2023-06-02T03:52:40.224Z,15.63
2023-06-02T03:55:41.625Z,15.57
2023-06-02T03:58:43.024Z,15.53
2023-06-02T04:01:44.456Z,15.47
2023-06-02T04:04:45.811Z,15.44
2023-06-02T04:07:47.712Z,15.52
2023-06-02T04:10:49.127Z,15.21
2023-06-02T04:13:50.869Z,15.21
2023-06-02T04:16:52.311Z,15.22
2023-06-02T04:19:54.061Z,15.03
2023-06-02T04:22:55.467Z,15.13
2023-06-02T04:25:56.810Z,15.17
2023-06-02T04:28:58.183Z,15.26
2023-06-02T04:31:59.827Z,15.18
2023-06-02T04:35:01.510Z,15.10
2023-06-02T04:38:04.198Z,15.25
2023-06-02T04:41:09.785Z,15.18
2023-06-02T04:44:11.186Z,15.09
2023-06-02T04:47:12.617Z,14.90
2023-06-02T04:50:17.432Z,15.05
2023-06-02T04:53:18.821Z,15.11
2023-06-02T04:56:20.154Z,14.91
2023-06-02T04:59:22.601Z,15.15
2023-06-02T05:02:23.939Z,14.75
2023-06-02T05:05:25.324Z,14.77
2023-06-02T05:08:26.657Z,14.78
2023-06-02T05:11:28.015Z,14.80
2023-06-02T05:14:29.359Z,14.68
2023-06-02T05:17:31.718Z,14.85
2023-06-02T05:20:33.078Z,14.79
2023-06-02T05:23:34.445Z,14.82
2023-06-02T05:26:35.864Z,14.60
2023-06-02T05:29:37.197Z,14.50
2023-06-02T05:32:38.535Z,14.50
2023-06-02T05:35:39.898Z,14.76
2023-06-02T05:38:42.925Z,14.81
2023-06-02T05:41:44.405Z,14.76
2023-06-02T05:44:45.822Z,14.80
2023-06-02T05:47:48.701Z,14.86
2023-06-02T05:50:50.188Z,14.81
2023-06-02T05:53:51.612Z,14.83
2023-06-02T05:56:53.078Z,14.83
2023-06-02T05:59:54.447Z,14.72
2023-06-02T06:02:56.212Z,14.82
2023-06-02T06:05:57.635Z,14.80
2023-06-02T06:08:59.093Z,14.81
2023-06-02T06:12:00.516Z,14.51
2023-06-02T06:15:01.912Z,14.77
2023-06-02T06:18:03.294Z,14.75
2023-06-02T06:21:04.682Z,14.84
2023-06-02T06:24:06.268Z,14.76
2023-06-02T06:27:09.091Z,14.85
2023-06-02T06:30:12.514Z,14.93
2023-06-02T06:33:13.825Z,14.94
2023-06-02T06:36:15.217Z,15.09
2023-06-02T06:39:16.554Z,15.11
2023-06-02T06:42:17.882Z,15.12
2023-06-02T06:45:19.196Z,15.12
2023-06-02T06:48:20.744Z,15.07
2023-06-02T06:51:22.739Z,15.10
2023-06-02T06:54:24.088Z,15.08
2023-06-02T06:57:25.431Z,15.10
2023-06-02T07:00:26.930Z,15.08
2023-06-02T07:03:28.385Z,14.99
2023-06-02T07:06:29.777Z,15.11
2023-06-02T07:09:31.137Z,15.11
2023-06-02T07:12:32.495Z,15.18
2023-06-02T07:15:34.165Z,15.10
2023-06-02T07:18:35.807Z,15.24
2023-06-02T07:21:37.760Z,15.27
2023-06-02T07:24:39.253Z,15.49
2023-06-02T07:27:40.664Z,15.30
2023-06-02T07:30:49.540Z,15.37
2023-06-02T07:34:03.471Z,15.48
2023-06-02T07:37:05.814Z,15.55
2023-06-02T07:40:09.254Z,15.56
2023-06-02T07:43:10.610Z,15.58
2023-06-02T07:46:12.089Z,15.62
2023-06-02T07:49:13.761Z,15.66
2023-06-02T07:52:16.293Z,15.62
2023-06-02T07:55:18.727Z,15.69
2023-06-02T07:58:20.109Z,15.64
2023-06-02T08:01:21.430Z,15.73
2023-06-02T08:04:27.385Z,15.79
2023-06-02T08:07:28.900Z,15.96
2023-06-02T08:10:30.295Z,15.97
2023-06-02T08:13:31.735Z,15.94
2023-06-02T08:16:41.479Z,15.91
2023-06-02T08:19:54.257Z,16.11
2023-06-02T08:22:57.041Z,16.16
2023-06-02T08:25:59.951Z,16.16
2023-06-02T08:29:01.404Z,16.07
2023-06-02T08:32:02.825Z,16.03
2023-06-02T08:35:04.508Z,16.07
2023-06-02T08:38:08.219Z,16.09
2023-06-02T08:41:11.669Z,16.38
2023-06-02T08:44:13.925Z,16.51
2023-06-02T08:47:15.446Z,16.48
2023-06-02T08:50:17.127Z,16.63
2023-06-02T08:53:18.946Z,16.74
2023-06-02T08:56:20.504Z,16.66
2023-06-02T08:59:22.304Z,16.60
2023-06-02T09:02:23.689Z,16.75
2023-06-02T09:05:25.435Z,16.69
2023-06-02T09:08:30.512Z,16.99
2023-06-02T09:11:32.668Z,17.00
2023-06-02T09:14:34.027Z,17.01
2023-06-02T09:17:35.432Z,17.14
2023-06-02T09:20:39.523Z,17.14
2023-06-02T09:23:42.858Z,17.14
2023-06-02T09:26:51.410Z,17.19
2023-06-02T09:29:59.204Z,17.32
2023-06-02T09:33:06.099Z,17.45
2023-06-02T09:36:22.196Z,17.43
2023-06-02T09:39:34.128Z,17.71
2023-06-02T09:42:43.557Z,17.57
2023-06-02T09:45:49.241Z,17.58
2023-06-02T09:48:58.160Z,17.65
2023-06-02T09:52:19.920Z,17.51
2023-06-02T09:55:21.465Z,17.73
2023-06-02T09:58:22.823Z,17.54
2023-06-02T10:01:24.186Z,17.69
2023-06-02T10:04:25.588Z,17.90
2023-06-02T10:07:49.380Z,18.03
2023-06-02T10:10:59.798Z,18.03
2023-06-02T10:14:01.123Z,18.12
2023-06-02T10:17:10.978Z,18.21
2023-06-02T10:20:21.465Z,18.26
2023-06-02T10:23:45.726Z,18.20
2023-06-02T10:26:56.333Z,18.44
2023-06-02T10:29:57.764Z,18.49
2023-06-02T10:32:59.176Z,18.55
2023-06-02T10:36:01.542Z,18.29
2023-06-02T10:39:22.976Z,18.39
2023-06-02T10:42:25.190Z,18.84
2023-06-02T10:45:32.641Z,18.70
2023-06-02T10:48:40.774Z,18.81
2023-06-02T10:52:06.442Z,18.84
2023-06-02T10:55:07.811Z,19.11
2023-06-02T10:58:12.334Z,19.17
2023-06-02T11:01:14.657Z,19.13
2023-06-02T11:04:25.107Z,19.18
2023-06-02T11:07:27.787Z,19.59
2023-06-02T11:10:42.645Z,19.58
2023-06-02T11:14:00.260Z,19.43
2023-06-02T11:17:20.708Z,19.35
2023-06-02T11:20:32.234Z,19.27
2023-06-02T11:23:33.615Z,19.40
2023-06-02T11:26:47.319Z,19.60
2023-06-02T11:30:03.659Z,19.84
2023-06-02T11:33:05.391Z,19.71
2023-06-02T11:36:09.302Z,19.81
2023-06-02T11:39:10.676Z,19.85
2023-06-02T11:42:11.991Z,19.70
2023-06-02T11:45:40.056Z,19.63
2023-06-02T11:48:41.829Z,19.72
2023-06-02T11:51:43.317Z,19.94
2023-06-02T11:54:51.477Z,20.12
2023-06-02T11:57:52.958Z,20.04
2023-06-02T12:01:05.421Z,19.95
2023-06-02T12:04:07.624Z,20.44
2023-06-02T12:07:09.455Z,20.39
2023-06-02T12:10:15.532Z,20.18
2023-06-02T12:13:30.065Z,20.44
2023-06-02T12:16:31.829Z,20.62
2023-06-02T12:19:33.280Z,20.68
2023-06-02T12:22:34.633Z,20.87
2023-06-02T12:25:36.378Z,21.04
2023-06-02T12:28:39.021Z,20.93
2023-06-02T12:31:40.699Z,21.08
2023-06-02T12:34:43.222Z,21.14
2023-06-02T12:37:44.718Z,21.62
2023-06-02T12:40:46.113Z,21.39
2023-06-02T12:43:47.585Z,21.37
2023-06-02T12:46:49.356Z,21.65
2023-06-02T12:49:53.494Z,21.56
2023-06-02T12:52:54.915Z,21.43
2023-06-02T12:55:56.362Z,21.20
2023-06-02T12:58:57.863Z,21.51
2023-06-02T13:01:59.344Z,21.67
2023-06-02T13:05:00.748Z,21.71
2023-06-02T13:08:05.854Z,21.90
2023-06-02T13:11:07.424Z,22.31
2023-06-02T13:14:08.866Z,22.18
2023-06-02T13:17:10.307Z,22.13
2023-06-02T13:20:12.060Z,22.52
2023-06-02T13:23:13.519Z,22.40
2023-06-02T13:26:15.246Z,22.61
2023-06-02T13:29:16.862Z,22.61
2023-06-02T13:32:18.278Z,22.43
2023-06-02T13:35:20.699Z,22.41
2023-06-02T13:38:23.095Z,22.33
2023-06-02T13:41:24.413Z,22.54
2023-06-02T13:44:25.998Z,22.43
2023-06-02T13:47:27.502Z,22.68
2023-06-02T13:50:28.974Z,22.56
2023-06-02T13:53:30.508Z,22.85
2023-06-02T13:56:32.202Z,22.90
2023-06-02T13:59:33.613Z,22.97
2023-06-02T14:02:35.120Z,23.08
2023-06-02T14:05:36.646Z,23.22
2023-06-02T14:08:38.035Z,23.35
2023-06-02T14:11:39.777Z,23.51
2023-06-02T14:14:41.309Z,23.27
2023-06-02T14:17:42.678Z,23.22
2023-06-02T14:20:44.164Z,23.23
2023-06-02T14:23:45.636Z,23.31
2023-06-02T14:26:46.998Z,23.28
2023-06-02T14:29:48.331Z,23.23
2023-06-02T14:32:49.757Z,23.47
2023-06-02T14:35:51.194Z,23.08
2023-06-02T14:38:52.557Z,23.22
2023-06-02T14:41:55.847Z,23.23
2023-06-02T14:44:57.207Z,23.43
2023-06-02T14:47:58.660Z,23.50
2023-06-02T14:51:00.445Z,23.57
2023-06-02T14:54:01.887Z,23.54
2023-06-02T14:57:06.143Z,23.62
2023-06-02T15:00:08.106Z,23.56
2023-06-02T15:03:09.641Z,23.50
2023-06-02T15:06:12.853Z,23.67
2023-06-02T15:09:14.284Z,23.84
2023-06-02T15:12:15.775Z,23.84
2023-06-02T15:15:17.112Z,23.68
2023-06-02T15:18:18.534Z,23.81
2023-06-02T15:21:20.175Z,23.52
2023-06-02T15:24:23.122Z,23.50
2023-06-02T15:27:26.606Z,23.55
2023-06-02T15:30:29.951Z,23.83
2023-06-02T15:33:32.361Z,23.74
2023-06-02T15:36:35.528Z,23.62
2023-06-02T15:39:36.880Z,23.31
2023-06-02T15:42:39.622Z,23.38
2023-06-02T15:45:41.155Z,23.43
2023-06-02T15:48:45.857Z,23.43
2023-06-02T15:51:47.209Z,23.28
2023-06-02T15:54:49.080Z,23.20
2023-06-02T15:57:54.829Z,23.09
2023-06-02T16:00:57.008Z,23.03
2023-06-02T16:03:58.419Z,22.76
2023-06-02T16:06:59.817Z,22.93
2023-06-02T16:10:01.204Z,23.11
2023-06-02T16:13:02.646Z,23.08
2023-06-02T16:16:04.216Z,23.13
2023-06-02T16:19:05.921Z,22.89
2023-06-02T16:22:07.421Z,22.68
2023-06-02T16:25:09.332Z,22.65
2023-06-02T16:28:10.833Z,22.78
2023-06-02T16:31:12.215Z,22.73
2023-06-02T16:34:13.674Z,22.61
2023-06-02T16:37:19.396Z,22.71
2023-06-02T16:40:20.875Z,22.73
2023-06-02T16:43:22.633Z,22.66
2023-06-02T16:46:24.660Z,22.83
2023-06-02T16:49:26.016Z,22.71
2023-06-02T16:52:27.977Z,22.76
2023-06-02T16:55:29.328Z,22.67
2023-06-02T16:58:30.734Z,22.56
2023-06-02T17:01:33.235Z,22.56
2023-06-02T17:04:35.807Z,22.59
2023-06-02T17:07:37.124Z,22.41
2023-06-02T17:10:38.689Z,22.41
2023-06-02T17:13:40.028Z,22.43
2023-06-02T17:16:41.448Z,22.58
2023-06-02T17:19:43.088Z,22.59
2023-06-02T17:22:44.435Z,22.37
2023-06-02T17:25:45.884Z,22.40
2023-06-02T17:28:47.723Z,22.41
2023-06-02T17:31:49.205Z,22.40
2023-06-02T17:34:51.309Z,22.35
2023-06-02T17:37:53.071Z,22.41
2023-06-02T17:40:54.409Z,22.40
2023-06-02T17:43:55.769Z,22.20
2023-06-02T17:46:57.436Z,22.32
2023-06-02T17:49:58.909Z,22.24
2023-06-02T17:53:00.276Z,22.23
2023-06-02T17:56:01.802Z,22.13
2023-06-02T17:59:05.235Z,21.93
2023-06-02T18:02:08.303Z,21.87
2023-06-02T18:05:09.893Z,21.79
2023-06-02T18:08:11.238Z,21.78
2023-06-02T18:11:12.569Z,21.60
2023-06-02T18:14:13.927Z,21.53
2023-06-02T18:17:15.739Z,21.51
2023-06-02T18:20:17.101Z,21.39
2023-06-02T18:23:19.909Z,21.45
2023-06-02T18:26:21.257Z,21.28
2023-06-02T18:29:22.862Z,21.14
2023-06-02T18:32:24.338Z,21.04
2023-06-02T18:35:26.132Z,21.15
2023-06-02T18:38:27.459Z,21.05
2023-06-02T18:41:30.109Z,20.92
2023-06-02T18:44:31.463Z,21.04
2023-06-02T18:47:33.633Z,20.87
2023-06-02T18:50:35.325Z,20.86
2023-06-02T18:53:37.015Z,20.80
2023-06-02T18:56:38.350Z,20.74
2023-06-02T18:59:39.895Z,20.77
2023-06-02T19:02:41.418Z,20.74
2023-06-02T19:05:42.893Z,20.57
2023-06-02T19:08:44.240Z,20.37
2023-06-02T19:11:46.617Z,20.24
2023-06-02T19:14:48.595Z,20.26
2023-06-02T19:17:51.504Z,20.03
2023-06-02T19:20:53.000Z,20.22
2023-06-02T19:23:54.492Z,20.33
2023-06-02T19:26:55.843Z,20.32
2023-06-02T19:29:57.178Z,20.31
2023-06-02T19:32:59.149Z,20.30
2023-06-02T19:36:00.637Z,20.04
2023-06-02T19:39:02.125Z,19.92
2023-06-02T19:42:03.605Z,19.92
2023-06-02T19:45:05.843Z,20.05
2023-06-02T19:48:07.484Z,20.12
2023-06-02T19:51:08.939Z,20.06
2023-06-02T19:54:10.355Z,19.63
2023-06-02T19:57:12.122Z,19.56
2023-06-02T20:00:13.599Z,19.66
2023-06-02T20:03:15.132Z,19.71
2023-06-02T20:06:18.711Z,19.65
2023-06-02T20:09:20.081Z,19.24
2023-06-02T20:12:22.650Z,19.48
2023-06-02T20:15:24.228Z,19.68
2023-06-02T20:18:25.576Z,19.70
2023-06-02T20:21:28.194Z,19.52
2023-06-02T20:24:29.552Z,19.59
2023-06-02T20:27:30.883Z,19.66
2023-06-02T20:30:32.229Z,19.49
2023-06-02T20:33:33.560Z,19.32
2023-06-02T20:36:34.931Z,19.37
2023-06-02T20:39:36.286Z,19.40
2023-06-02T20:42:37.622Z,19.25
2023-06-02T20:45:38.965Z,19.33
2023-06-02T20:48:40.397Z,19.32
2023-06-02T20:51:41.792Z,19.23
2023-06-02T20:54:43.152Z,19.07
2023-06-02T20:57:44.484Z,18.99
2023-06-02T21:00:45.895Z,19.00
2023-06-02T21:03:47.258Z,19.00
2023-06-02T21:06:48.721Z,18.96
2023-06-02T21:09:50.061Z,19.02
2023-06-02T21:12:53.174Z,18.96
2023-06-02T21:15:54.501Z,19.04
2023-06-02T21:18:57.189Z,19.07
2023-06-02T21:21:58.514Z,18.85
2023-06-02T21:25:01.853Z,18.90
2023-06-02T21:28:03.240Z,18.72
2023-06-02T21:31:04.972Z,18.80
2023-06-02T21:34:06.478Z,18.71
2023-06-02T21:37:08.790Z,18.77
2023-06-02T21:40:10.342Z,18.58
2023-06-02T21:43:11.694Z,18.64
2023-06-02T21:46:13.932Z,18.41
2023-06-02T21:49:15.287Z,18.51
2023-06-02T21:52:16.605Z,18.55
2023-06-02T21:55:17.934Z,18.57
2023-06-02T21:58:19.299Z,18.51
2023-06-02T22:01:21.913Z,18.45
2023-06-02T22:04:23.524Z,17.89
2023-06-02T22:07:24.998Z,18.28
2023-06-02T22:10:26.347Z,18.30
2023-06-02T22:13:28.667Z,18.30
2023-06-02T22:16:30.141Z,18.31
2023-06-02T22:19:31.604Z,18.22
2023-06-02T22:22:33.353Z,18.17
2023-06-02T22:25:34.694Z,18.22
2023-06-02T22:28:36.026Z,18.14
2023-06-02T22:31:37.440Z,18.15
2023-06-02T22:34:38.788Z,18.14
2023-06-02T22:37:40.134Z,18.16
2023-06-02T22:40:41.458Z,18.13
2023-06-02T22:43:42.784Z,18.07
2023-06-02T22:46:44.213Z,18.08
2023-06-02T22:49:45.705Z,18.04
2023-06-02T22:52:47.054Z,17.98
2023-06-02T22:55:48.543Z,17.81
2023-06-02T22:58:49.939Z,17.83
2023-06-02T23:01:51.339Z,17.78
2023-06-02T23:04:52.883Z,17.66
2023-06-02T23:07:54.331Z,17.69
2023-06-02T23:10:55.658Z,17.32
2023-06-02T23:13:57.001Z,17.40
2023-06-02T23:16:58.511Z,17.45
2023-06-02T23:20:00.012Z,17.52
2023-06-02T23:23:01.359Z,17.52
2023-06-02T23:26:02.820Z,17.49
2023-06-02T23:29:04.557Z,17.41
2023-06-02T23:32:06.352Z,17.51
2023-06-02T23:35:08.028Z,17.41
2023-06-02T23:38:09.587Z,17.32
2023-06-02T23:41:11.394Z,17.24
2023-06-02T23:44:12.869Z,17.16
2023-06-02T23:47:17.770Z,17.26
2023-06-02T23:50:19.154Z,17.24
2023-06-02T23:53:20.625Z,17.15
2023-06-02T23:56:22.182Z,17.13
2023-06-02T23:59:23.908Z,17.16
